sensor_id;sensor_type;location;lat;lon;timestamp;P1;durP1;ratioP1;P2;durP2;ratioP2
58681;SDS011;44460;40.162;18.294;2023-02-15T00:01:13;30.40;;;17.50;;
58681;SDS011;44460;40.162;18.294;2023-02-15T00:03:38;38.92;;;17.55;;
58681;SDS011;44460;40.162;18.294;2023-02-15T00:06:04;39.60;;;18.63;;
58681;SDS011;44460;40.162;18.294;2023-02-15T00:08:30;43.65;;;19.15;;
58681;SDS011;44460;40.162;18.294;2023-02-15T00:11:05;37.55;;;18.58;;
58681;SDS011;44460;40.162;18.294;2023-02-15T00:13:30;34.42;;;17.48;;
58681;SDS011;44460;40.162;18.294;2023-02-15T00:16:00;37.22;;;17.85;;
58681;SDS011;44460;40.162;18.294;2023-02-15T00:18:25;32.42;;;16.80;;
58681;SDS011;44460;40.162;18.294;2023-02-15T00:20:50;43.20;;;19.40;;
58681;SDS011;44460;40.162;18.294;2023-02-15T00:23:16;43.22;;;18.42;;
58681;SDS011;44460;40.162;18.294;2023-02-15T00:25:41;34.10;;;19.58;;
58681;SDS011;44460;40.162;18.294;2023-02-15T00:28:07;37.22;;;19.25;;
58681;SDS011;44460;40.162;18.294;2023-02-15T00:30:33;39.78;;;18.50;;
58681;SDS011;44460;40.162;18.294;2023-02-15T00:32:59;42.58;;;19.13;;
58681;SDS011;44460;40.162;18.294;2023-02-15T00:35:25;41.83;;;19.33;;
58681;SDS011;44460;40.162;18.294;2023-02-15T00:37:50;43.88;;;20.05;;
58681;SDS011;44460;40.162;18.294;2023-02-15T00:40:17;42.05;;;20.67;;
58681;SDS011;44460;40.162;18.294;2023-02-15T00:42:43;44.63;;;19.95;;
58681;SDS011;44460;40.162;18.294;2023-02-15T00:45:08;45.13;;;21.75;;
58681;SDS011;44460;40.162;18.294;2023-02-15T00:47:34;37.28;;;20.00;;
58681;SDS011;44460;40.162;18.294;2023-02-15T00:49:59;40.33;;;21.80;;
58681;SDS011;44460;40.162;18.294;2023-02-15T00:52:24;42.28;;;20.33;;
58681;SDS011;44460;40.162;18.294;2023-02-15T00:54:50;43.17;;;20.48;;
58681;SDS011;44460;40.162;18.294;2023-02-15T00:57:15;41.10;;;20.80;;
58681;SDS011;44460;40.162;18.294;2023-02-15T00:59:41;38.45;;;20.70;;
58681;SDS011;44460;40.162;18.294;2023-02-15T01:02:06;39.78;;;19.90;;
58681;SDS011;44460;40.162;18.294;2023-02-15T01:04:32;52.58;;;22.33;;
58681;SDS011;44460;40.162;18.294;2023-02-15T01:06:57;43.97;;;21.85;;
58681;SDS011;44460;40.162;18.294;2023-02-15T01:09:22;45.50;;;22.40;;
58681;SDS011;44460;40.162;18.294;2023-02-15T01:11:48;39.10;;;20.80;;
58681;SDS011;44460;40.162;18.294;2023-02-15T01:14:13;43.28;;;21.58;;
58681;SDS011;44460;40.162;18.294;2023-02-15T01:16:40;51.47;;;22.00;;
58681;SDS011;44460;40.162;18.294;2023-02-15T01:19:06;45.25;;;21.65;;
58681;SDS011;44460;40.162;18.294;2023-02-15T01:21:31;35.30;;;20.63;;
58681;SDS011;44460;40.162;18.294;2023-02-15T01:23:59;46.30;;;23.23;;
58681;SDS011;44460;40.162;18.294;2023-02-15T01:26:25;43.38;;;22.13;;
58681;SDS011;44460;40.162;18.294;2023-02-15T01:28:50;43.03;;;22.58;;
58681;SDS011;44460;40.162;18.294;2023-02-15T01:31:17;44.67;;;22.73;;
58681;SDS011;44460;40.162;18.294;2023-02-15T01:33:44;43.40;;;24.80;;
58681;SDS011;44460;40.162;18.294;2023-02-15T01:36:09;47.75;;;23.40;;
58681;SDS011;44460;40.162;18.294;2023-02-15T01:38:35;40.70;;;21.38;;
58681;SDS011;44460;40.162;18.294;2023-02-15T01:41:01;44.47;;;21.40;;
58681;SDS011;44460;40.162;18.294;2023-02-15T01:43:47;37.38;;;22.02;;
58681;SDS011;44460;40.162;18.294;2023-02-15T01:46:14;44.95;;;22.45;;
58681;SDS011;44460;40.162;18.294;2023-02-15T01:48:43;39.00;;;24.02;;
58681;SDS011;44460;40.162;18.294;2023-02-15T01:51:10;37.95;;;21.92;;
58681;SDS011;44460;40.162;18.294;2023-02-15T01:53:43;41.15;;;21.38;;
58681;SDS011;44460;40.162;18.294;2023-02-15T01:56:12;56.88;;;21.65;;
58681;SDS011;44460;40.162;18.294;2023-02-15T01:58:38;35.67;;;21.20;;
58681;SDS011;44460;40.162;18.294;2023-02-15T02:01:04;40.13;;;21.40;;
58681;SDS011;44460;40.162;18.294;2023-02-15T02:03:47;38.53;;;22.38;;
58681;SDS011;44460;40.162;18.294;2023-02-15T02:06:15;40.65;;;21.30;;
58681;SDS011;44460;40.162;18.294;2023-02-15T02:08:40;36.20;;;20.67;;
58681;SDS011;44460;40.162;18.294;2023-02-15T02:11:11;45.10;;;21.92;;
58681;SDS011;44460;40.162;18.294;2023-02-15T02:13:37;45.60;;;22.52;;
58681;SDS011;44460;40.162;18.294;2023-02-15T02:16:11;38.50;;;22.38;;
58681;SDS011;44460;40.162;18.294;2023-02-15T02:23:59;41.10;;;21.27;;
58681;SDS011;44460;40.162;18.294;2023-02-15T02:26:52;43.15;;;24.00;;
58681;SDS011;44460;40.162;18.294;2023-02-15T02:44:23;44.20;;;22.60;;
58681;SDS011;44460;40.162;18.294;2023-02-15T02:46:54;37.65;;;22.35;;
58681;SDS011;44460;40.162;18.294;2023-02-15T02:49:29;37.85;;;21.58;;
58681;SDS011;44460;40.162;18.294;2023-02-15T02:52:02;45.05;;;22.13;;
58681;SDS011;44460;40.162;18.294;2023-02-15T02:54:28;43.35;;;23.17;;
58681;SDS011;44460;40.162;18.294;2023-02-15T02:56:54;39.78;;;20.50;;
58681;SDS011;44460;40.162;18.294;2023-02-15T02:59:26;48.13;;;22.75;;
58681;SDS011;44460;40.162;18.294;2023-02-15T03:04:31;38.15;;;22.80;;
58681;SDS011;44460;40.162;18.294;2023-02-15T03:07:01;40.65;;;23.13;;
58681;SDS011;44460;40.162;18.294;2023-02-15T03:12:00;37.80;;;21.55;;
58681;SDS011;44460;40.162;18.294;2023-02-15T03:14:26;37.58;;;17.95;;
58681;SDS011;44460;40.162;18.294;2023-02-15T03:16:52;40.83;;;21.73;;
58681;SDS011;44460;40.162;18.294;2023-02-15T03:19:33;64.07;;;33.58;;
58681;SDS011;44460;40.162;18.294;2023-02-15T03:22:00;50.28;;;22.80;;
58681;SDS011;44460;40.162;18.294;2023-02-15T03:25:36;39.15;;;21.52;;
58681;SDS011;44460;40.162;18.294;2023-02-15T03:27:33;45.22;;;22.63;;
58681;SDS011;44460;40.162;18.294;2023-02-15T03:30:00;41.92;;;21.88;;
58681;SDS011;44460;40.162;18.294;2023-02-15T03:32:28;43.10;;;22.02;;
58681;SDS011;44460;40.162;18.294;2023-02-15T03:34:54;40.40;;;21.23;;
58681;SDS011;44460;40.162;18.294;2023-02-15T03:39:56;39.38;;;21.85;;
58681;SDS011;44460;40.162;18.294;2023-02-15T03:42:44;43.00;;;22.42;;
58681;SDS011;44460;40.162;18.294;2023-02-15T03:45:11;47.80;;;24.27;;
58681;SDS011;44460;40.162;18.294;2023-02-15T03:47:40;44.17;;;23.20;;
58681;SDS011;44460;40.162;18.294;2023-02-15T03:50:11;44.85;;;23.30;;
58681;SDS011;44460;40.162;18.294;2023-02-15T03:52:57;43.20;;;23.15;;
58681;SDS011;44460;40.162;18.294;2023-02-15T03:55:23;40.25;;;22.42;;
58681;SDS011;44460;40.162;18.294;2023-02-15T03:57:49;40.80;;;22.33;;
58681;SDS011;44460;40.162;18.294;2023-02-15T04:00:34;44.75;;;23.45;;
58681;SDS011;44460;40.162;18.294;2023-02-15T04:03:22;41.78;;;21.95;;
58681;SDS011;44460;40.162;18.294;2023-02-15T04:05:49;37.75;;;21.90;;
58681;SDS011;44460;40.162;18.294;2023-02-15T04:08:14;41.83;;;22.83;;
58681;SDS011;44460;40.162;18.294;2023-02-15T04:10:40;48.70;;;22.98;;
58681;SDS011;44460;40.162;18.294;2023-02-15T04:13:38;39.58;;;22.55;;
58681;SDS011;44460;40.162;18.294;2023-02-15T04:16:03;42.95;;;23.05;;
58681;SDS011;44460;40.162;18.294;2023-02-15T04:18:38;40.80;;;21.58;;
58681;SDS011;44460;40.162;18.294;2023-02-15T04:21:23;41.60;;;23.98;;
58681;SDS011;44460;40.162;18.294;2023-02-15T04:24:08;49.33;;;23.85;;
58681;SDS011;44460;40.162;18.294;2023-02-15T04:26:52;42.17;;;21.13;;
58681;SDS011;44460;40.162;18.294;2023-02-15T04:29:21;44.15;;;22.05;;
58681;SDS011;44460;40.162;18.294;2023-02-15T04:31:47;41.72;;;22.30;;
58681;SDS011;44460;40.162;18.294;2023-02-15T04:34:12;41.28;;;22.65;;
58681;SDS011;44460;40.162;18.294;2023-02-15T04:36:38;40.83;;;22.70;;
58681;SDS011;44460;40.162;18.294;2023-02-15T04:39:04;40.95;;;21.55;;
58681;SDS011;44460;40.162;18.294;2023-02-15T04:41:30;42.42;;;21.45;;
58681;SDS011;44460;40.162;18.294;2023-02-15T04:43:55;36.42;;;22.02;;
58681;SDS011;44460;40.162;18.294;2023-02-15T04:46:21;39.40;;;21.88;;
58681;SDS011;44460;40.162;18.294;2023-02-15T04:48:47;42.72;;;22.35;;
58681;SDS011;44460;40.162;18.294;2023-02-15T04:51:12;40.47;;;22.85;;
58681;SDS011;44460;40.162;18.294;2023-02-15T04:53:37;36.97;;;21.05;;
58681;SDS011;44460;40.162;18.294;2023-02-15T04:56:03;43.97;;;22.60;;
58681;SDS011;44460;40.162;18.294;2023-02-15T04:58:28;41.92;;;22.27;;
58681;SDS011;44460;40.162;18.294;2023-02-15T05:00:57;41.28;;;21.40;;
58681;SDS011;44460;40.162;18.294;2023-02-15T05:03:23;45.22;;;23.40;;
58681;SDS011;44460;40.162;18.294;2023-02-15T05:05:49;40.50;;;23.23;;
58681;SDS011;44460;40.162;18.294;2023-02-15T05:08:14;40.33;;;22.35;;
58681;SDS011;44460;40.162;18.294;2023-02-15T05:10:39;39.15;;;20.38;;
58681;SDS011;44460;40.162;18.294;2023-02-15T05:13:05;38.85;;;22.17;;
58681;SDS011;44460;40.162;18.294;2023-02-15T05:15:30;39.50;;;21.52;;
58681;SDS011;44460;40.162;18.294;2023-02-15T05:17:56;44.88;;;22.02;;
58681;SDS011;44460;40.162;18.294;2023-02-15T05:20:21;46.75;;;23.48;;
58681;SDS011;44460;40.162;18.294;2023-02-15T05:22:46;46.60;;;22.95;;
58681;SDS011;44460;40.162;18.294;2023-02-15T05:25:12;40.33;;;20.67;;
58681;SDS011;44460;40.162;18.294;2023-02-15T05:27:56;43.88;;;21.98;;
58681;SDS011;44460;40.162;18.294;2023-02-15T05:30:40;41.75;;;22.25;;
58681;SDS011;44460;40.162;18.294;2023-02-15T05:33:06;44.42;;;21.92;;
58681;SDS011;44460;40.162;18.294;2023-02-15T05:35:32;43.92;;;22.38;;
58681;SDS011;44460;40.162;18.294;2023-02-15T05:37:58;43.30;;;22.42;;
58681;SDS011;44460;40.162;18.294;2023-02-15T05:40:23;39.85;;;21.50;;
58681;SDS011;44460;40.162;18.294;2023-02-15T05:42:49;46.13;;;21.65;;
58681;SDS011;44460;40.162;18.294;2023-02-15T05:45:14;40.17;;;21.02;;
58681;SDS011;44460;40.162;18.294;2023-02-15T05:47:40;46.92;;;22.88;;
58681;SDS011;44460;40.162;18.294;2023-02-15T05:50:06;38.50;;;22.00;;
58681;SDS011;44460;40.162;18.294;2023-02-15T05:52:32;43.58;;;22.40;;
58681;SDS011;44460;40.162;18.294;2023-02-15T05:54:57;40.65;;;22.25;;
58681;SDS011;44460;40.162;18.294;2023-02-15T05:57:25;44.40;;;23.25;;
58681;SDS011;44460;40.162;18.294;2023-02-15T05:59:50;48.25;;;25.45;;
58681;SDS011;44460;40.162;18.294;2023-02-15T06:02:16;41.80;;;24.33;;
58681;SDS011;44460;40.162;18.294;2023-02-15T06:04:41;45.25;;;23.77;;
58681;SDS011;44460;40.162;18.294;2023-02-15T06:07:07;45.22;;;25.38;;
58681;SDS011;44460;40.162;18.294;2023-02-15T06:09:32;42.88;;;26.88;;
58681;SDS011;44460;40.162;18.294;2023-02-15T06:11:57;43.47;;;23.55;;
58681;SDS011;44460;40.162;18.294;2023-02-15T06:14:23;47.97;;;24.63;;
58681;SDS011;44460;40.162;18.294;2023-02-15T06:16:48;40.42;;;22.55;;
58681;SDS011;44460;40.162;18.294;2023-02-15T06:19:14;38.42;;;22.40;;
58681;SDS011;44460;40.162;18.294;2023-02-15T06:21:39;40.47;;;23.05;;
58681;SDS011;44460;40.162;18.294;2023-02-15T06:24:05;49.40;;;22.95;;
58681;SDS011;44460;40.162;18.294;2023-02-15T06:26:30;39.58;;;22.35;;
58681;SDS011;44460;40.162;18.294;2023-02-15T06:28:55;39.58;;;22.58;;
58681;SDS011;44460;40.162;18.294;2023-02-15T06:31:21;43.40;;;23.13;;
58681;SDS011;44460;40.162;18.294;2023-02-15T06:33:47;37.88;;;22.02;;
58681;SDS011;44460;40.162;18.294;2023-02-15T06:36:12;46.67;;;24.08;;
58681;SDS011;44460;40.162;18.294;2023-02-15T06:38:38;35.20;;;22.42;;
58681;SDS011;44460;40.162;18.294;2023-02-15T06:41:03;41.17;;;23.42;;
58681;SDS011;44460;40.162;18.294;2023-02-15T06:43:29;45.15;;;24.67;;
58681;SDS011;44460;40.162;18.294;2023-02-15T06:45:54;50.70;;;28.25;;
58681;SDS011;44460;40.162;18.294;2023-02-15T06:48:19;55.58;;;30.38;;
58681;SDS011;44460;40.162;18.294;2023-02-15T06:50:45;57.72;;;32.35;;
58681;SDS011;44460;40.162;18.294;2023-02-15T06:53:10;67.90;;;35.65;;
58681;SDS011;44460;40.162;18.294;2023-02-15T06:55:36;101.15;;;47.15;;
58681;SDS011;44460;40.162;18.294;2023-02-15T06:58:01;135.23;;;60.63;;
58681;SDS011;44460;40.162;18.294;2023-02-15T07:00:26;128.52;;;58.50;;
58681;SDS011;44460;40.162;18.294;2023-02-15T07:02:55;134.57;;;62.28;;
58681;SDS011;44460;40.162;18.294;2023-02-15T07:05:21;131.50;;;60.38;;
58681;SDS011;44460;40.162;18.294;2023-02-15T07:07:47;94.45;;;47.75;;
58681;SDS011;44460;40.162;18.294;2023-02-15T07:10:13;92.75;;;44.28;;
58681;SDS011;44460;40.162;18.294;2023-02-15T07:12:38;87.05;;;41.47;;
58681;SDS011;44460;40.162;18.294;2023-02-15T07:15:08;68.47;;;34.65;;
58681;SDS011;44460;40.162;18.294;2023-02-15T07:17:34;54.08;;;28.63;;
58681;SDS011;44460;40.162;18.294;2023-02-15T07:20:00;48.58;;;28.55;;
58681;SDS011;44460;40.162;18.294;2023-02-15T07:22:25;64.55;;;34.85;;
58681;SDS011;44460;40.162;18.294;2023-02-15T07:24:51;84.00;;;43.15;;
58681;SDS011;44460;40.162;18.294;2023-02-15T07:27:19;127.28;;;58.15;;
58681;SDS011;44460;40.162;18.294;2023-02-15T07:29:44;111.28;;;56.50;;
58681;SDS011;44460;40.162;18.294;2023-02-15T07:32:10;111.57;;;54.53;;
58681;SDS011;44460;40.162;18.294;2023-02-15T07:34:35;90.05;;;46.25;;
58681;SDS011;44460;40.162;18.294;2023-02-15T07:37:01;74.53;;;39.10;;
58681;SDS011;44460;40.162;18.294;2023-02-15T07:39:26;42.30;;;22.88;;
58681;SDS011;44460;40.162;18.294;2023-02-15T07:41:52;65.50;;;37.72;;
58681;SDS011;44460;40.162;18.294;2023-02-15T07:44:18;79.88;;;45.47;;
58681;SDS011;44460;40.162;18.294;2023-02-15T07:46:43;86.80;;;46.92;;
58681;SDS011;44460;40.162;18.294;2023-02-15T07:49:09;64.35;;;34.85;;
58681;SDS011;44460;40.162;18.294;2023-02-15T07:51:34;56.63;;;33.00;;
58681;SDS011;44460;40.162;18.294;2023-02-15T07:54:00;41.47;;;23.25;;
58681;SDS011;44460;40.162;18.294;2023-02-15T07:56:25;42.45;;;26.55;;
58681;SDS011;44460;40.162;18.294;2023-02-15T07:58:51;44.25;;;24.33;;
58681;SDS011;44460;40.162;18.294;2023-02-15T08:01:18;43.78;;;24.77;;
58681;SDS011;44460;40.162;18.294;2023-02-15T08:03:43;46.70;;;23.15;;
58681;SDS011;44460;40.162;18.294;2023-02-15T08:06:09;41.55;;;23.30;;
58681;SDS011;44460;40.162;18.294;2023-02-15T08:08:36;36.85;;;19.92;;
58681;SDS011;44460;40.162;18.294;2023-02-15T08:14:13;35.58;;;17.52;;
58681;SDS011;44460;40.162;18.294;2023-02-15T08:21:34;30.33;;;18.15;;
58681;SDS011;44460;40.162;18.294;2023-02-15T08:23:59;35.22;;;17.55;;
58681;SDS011;44460;40.162;18.294;2023-02-15T08:26:25;34.33;;;17.60;;
58681;SDS011;44460;40.162;18.294;2023-02-15T08:28:52;40.97;;;18.27;;
58681;SDS011;44460;40.162;18.294;2023-02-15T08:31:18;34.08;;;16.98;;
58681;SDS011;44460;40.162;18.294;2023-02-15T08:33:44;42.65;;;18.30;;
58681;SDS011;44460;40.162;18.294;2023-02-15T08:36:17;36.58;;;16.98;;
58681;SDS011;44460;40.162;18.294;2023-02-15T08:38:43;31.52;;;17.02;;
58681;SDS011;44460;40.162;18.294;2023-02-15T08:41:16;31.40;;;16.55;;
58681;SDS011;44460;40.162;18.294;2023-02-15T08:43:42;33.10;;;17.85;;
58681;SDS011;44460;40.162;18.294;2023-02-15T08:46:08;33.22;;;18.42;;
58681;SDS011;44460;40.162;18.294;2023-02-15T08:48:34;38.90;;;17.35;;
58681;SDS011;44460;40.162;18.294;2023-02-15T08:51:04;24.45;;;13.63;;
58681;SDS011;44460;40.162;18.294;2023-02-15T08:53:29;30.15;;;16.02;;
58681;SDS011;44460;40.162;18.294;2023-02-15T08:55:58;31.48;;;15.30;;
58681;SDS011;44460;40.162;18.294;2023-02-15T08:58:23;30.73;;;14.40;;
58681;SDS011;44460;40.162;18.294;2023-02-15T09:00:49;24.48;;;13.65;;
58681;SDS011;44460;40.162;18.294;2023-02-15T09:03:14;31.30;;;16.05;;
58681;SDS011;44460;40.162;18.294;2023-02-15T09:05:40;28.17;;;15.05;;
58681;SDS011;44460;40.162;18.294;2023-02-15T09:08:05;25.73;;;13.27;;
58681;SDS011;44460;40.162;18.294;2023-02-15T09:10:30;23.35;;;12.35;;
58681;SDS011;44460;40.162;18.294;2023-02-15T09:12:56;22.23;;;12.32;;
58681;SDS011;44460;40.162;18.294;2023-02-15T09:15:21;34.40;;;12.73;;
58681;SDS011;44460;40.162;18.294;2023-02-15T09:17:46;23.52;;;12.82;;
58681;SDS011;44460;40.162;18.294;2023-02-15T09:20:12;24.38;;;12.27;;
58681;SDS011;44460;40.162;18.294;2023-02-15T09:22:38;28.50;;;13.00;;
58681;SDS011;44460;40.162;18.294;2023-02-15T09:25:03;20.75;;;11.65;;
58681;SDS011;44460;40.162;18.294;2023-02-15T09:27:29;21.83;;;11.15;;
58681;SDS011;44460;40.162;18.294;2023-02-15T09:29:55;19.98;;;10.63;;
58681;SDS011;44460;40.162;18.294;2023-02-15T09:32:20;19.90;;;10.40;;
58681;SDS011;44460;40.162;18.294;2023-02-15T09:34:47;21.60;;;9.93;;
58681;SDS011;44460;40.162;18.294;2023-02-15T09:37:12;21.88;;;12.13;;
58681;SDS011;44460;40.162;18.294;2023-02-15T09:39:39;20.92;;;11.32;;
58681;SDS011;44460;40.162;18.294;2023-02-15T09:47:46;17.63;;;11.15;;
58681;SDS011;44460;40.162;18.294;2023-02-15T09:52:29;20.45;;;11.57;;
58681;SDS011;44460;40.162;18.294;2023-02-15T10:04:49;20.85;;;10.20;;
58681;SDS011;44460;40.162;18.294;2023-02-15T10:07:26;21.52;;;10.48;;
58681;SDS011;44460;40.162;18.294;2023-02-15T10:12:31;17.20;;;10.57;;
58681;SDS011;44460;40.162;18.294;2023-02-15T10:27:43;17.92;;;8.15;;
58681;SDS011;44460;40.162;18.294;2023-02-15T10:30:11;14.63;;;7.93;;
58681;SDS011;44460;40.162;18.294;2023-02-15T10:32:59;24.23;;;13.75;;
58681;SDS011;44460;40.162;18.294;2023-02-15T10:35:30;13.90;;;8.13;;
58681;SDS011;44460;40.162;18.294;2023-02-15T10:38:04;16.05;;;8.73;;
58681;SDS011;44460;40.162;18.294;2023-02-15T10:51:04;13.48;;;8.57;;
58681;SDS011;44460;40.162;18.294;2023-02-15T10:53:39;21.40;;;11.98;;
58681;SDS011;44460;40.162;18.294;2023-02-15T11:06:16;20.02;;;9.93;;
58681;SDS011;44460;40.162;18.294;2023-02-15T11:08:45;18.58;;;11.70;;
58681;SDS011;44460;40.162;18.294;2023-02-15T11:11:21;16.58;;;9.07;;
58681;SDS011;44460;40.162;18.294;2023-02-15T11:13:49;17.27;;;8.80;;
58681;SDS011;44460;40.162;18.294;2023-02-15T11:16:17;15.73;;;9.35;;
58681;SDS011;44460;40.162;18.294;2023-02-15T11:19:03;15.60;;;9.05;;
58681;SDS011;44460;40.162;18.294;2023-02-15T11:23:57;16.17;;;8.73;;
58681;SDS011;44460;40.162;18.294;2023-02-15T11:26:30;13.90;;;9.27;;
58681;SDS011;44460;40.162;18.294;2023-02-15T11:28:58;16.52;;;7.70;;
58681;SDS011;44460;40.162;18.294;2023-02-15T11:31:26;17.55;;;9.30;;
58681;SDS011;44460;40.162;18.294;2023-02-15T11:34:03;18.58;;;8.75;;
58681;SDS011;44460;40.162;18.294;2023-02-15T11:36:34;14.38;;;8.05;;
58681;SDS011;44460;40.162;18.294;2023-02-15T11:39:11;16.58;;;9.10;;
58681;SDS011;44460;40.162;18.294;2023-02-15T11:41:56;15.25;;;9.10;;
58681;SDS011;44460;40.162;18.294;2023-02-15T11:47:13;19.83;;;10.05;;
58681;SDS011;44460;40.162;18.294;2023-02-15T11:49:39;17.58;;;10.85;;
58681;SDS011;44460;40.162;18.294;2023-02-15T11:52:06;20.77;;;11.13;;
58681;SDS011;44460;40.162;18.294;2023-02-15T11:54:33;19.52;;;9.38;;
58681;SDS011;44460;40.162;18.294;2023-02-15T11:57:10;17.63;;;10.98;;
58681;SDS011;44460;40.162;18.294;2023-02-15T11:59:37;19.92;;;12.18;;
58681;SDS011;44460;40.162;18.294;2023-02-15T12:04:38;20.73;;;11.10;;
58681;SDS011;44460;40.162;18.294;2023-02-15T12:07:09;20.08;;;11.93;;
58681;SDS011;44460;40.162;18.294;2023-02-15T12:09:59;19.13;;;10.77;;
58681;SDS011;44460;40.162;18.294;2023-02-15T12:12:29;18.50;;;10.57;;
58681;SDS011;44460;40.162;18.294;2023-02-15T12:14:56;17.65;;;10.27;;
58681;SDS011;44460;40.162;18.294;2023-02-15T12:17:29;15.52;;;10.02;;
58681;SDS011;44460;40.162;18.294;2023-02-15T12:19:56;21.00;;;10.90;;
58681;SDS011;44460;40.162;18.294;2023-02-15T12:22:27;19.08;;;11.05;;
58681;SDS011;44460;40.162;18.294;2023-02-15T12:24:58;21.08;;;10.60;;
58681;SDS011;44460;40.162;18.294;2023-02-15T12:27:26;19.60;;;11.27;;
58681;SDS011;44460;40.162;18.294;2023-02-15T12:29:53;16.85;;;10.77;;
58681;SDS011;44460;40.162;18.294;2023-02-15T12:34:45;14.77;;;9.45;;
58681;SDS011;44460;40.162;18.294;2023-02-15T12:37:16;17.95;;;10.88;;
58681;SDS011;44460;40.162;18.294;2023-02-15T12:39:56;17.73;;;10.75;;
58681;SDS011;44460;40.162;18.294;2023-02-15T12:42:21;19.63;;;10.40;;
58681;SDS011;44460;40.162;18.294;2023-02-15T12:44:59;17.33;;;10.68;;
58681;SDS011;44460;40.162;18.294;2023-02-15T12:47:24;18.92;;;11.20;;
58681;SDS011;44460;40.162;18.294;2023-02-15T12:52:42;21.17;;;11.00;;
58681;SDS011;44460;40.162;18.294;2023-02-15T12:57:45;16.00;;;10.05;;
58681;SDS011;44460;40.162;18.294;2023-02-15T13:02:47;17.83;;;10.57;;
58681;SDS011;44460;40.162;18.294;2023-02-15T13:07:44;20.42;;;10.18;;
58681;SDS011;44460;40.162;18.294;2023-02-15T13:10:26;16.25;;;10.07;;
58681;SDS011;44460;40.162;18.294;2023-02-15T13:12:53;22.92;;;10.80;;
58681;SDS011;44460;40.162;18.294;2023-02-15T13:15:25;21.48;;;10.52;;
58681;SDS011;44460;40.162;18.294;2023-02-15T13:17:50;17.08;;;9.88;;
58681;SDS011;44460;40.162;18.294;2023-02-15T13:20:19;19.08;;;11.82;;
58681;SDS011;44460;40.162;18.294;2023-02-15T13:22:47;19.67;;;10.30;;
58681;SDS011;44460;40.162;18.294;2023-02-15T13:27:42;19.17;;;10.55;;
58681;SDS011;44460;40.162;18.294;2023-02-15T13:30:31;18.05;;;10.82;;
58681;SDS011;44460;40.162;18.294;2023-02-15T13:33:02;19.60;;;10.73;;
58681;SDS011;44460;40.162;18.294;2023-02-15T13:35:30;17.67;;;10.18;;
58681;SDS011;44460;40.162;18.294;2023-02-15T13:38:06;17.33;;;10.10;;
58681;SDS011;44460;40.162;18.294;2023-02-15T13:43:35;17.17;;;10.77;;
58681;SDS011;44460;40.162;18.294;2023-02-15T13:48:34;17.58;;;9.93;;
58681;SDS011;44460;40.162;18.294;2023-02-15T13:51:25;18.42;;;10.75;;
58681;SDS011;44460;40.162;18.294;2023-02-15T14:06:08;19.30;;;10.25;;
58681;SDS011;44460;40.162;18.294;2023-02-15T14:11:06;17.60;;;11.40;;
58681;SDS011;44460;40.162;18.294;2023-02-15T14:16:02;18.27;;;9.93;;
58681;SDS011;44460;40.162;18.294;2023-02-15T14:18:36;15.68;;;10.02;;
58681;SDS011;44460;40.162;18.294;2023-02-15T14:23:44;21.58;;;9.77;;
58681;SDS011;44460;40.162;18.294;2023-02-15T14:28:45;18.52;;;10.30;;
58681;SDS011;44460;40.162;18.294;2023-02-15T14:31:12;17.85;;;9.65;;
58681;SDS011;44460;40.162;18.294;2023-02-15T14:33:39;16.13;;;9.80;;
58681;SDS011;44460;40.162;18.294;2023-02-15T14:36:08;20.90;;;12.27;;
58681;SDS011;44460;40.162;18.294;2023-02-15T14:44:03;23.83;;;12.50;;
58681;SDS011;44460;40.162;18.294;2023-02-15T14:49:05;16.00;;;10.25;;
58681;SDS011;44460;40.162;18.294;2023-02-15T15:02:04;16.98;;;9.43;;
58681;SDS011;44460;40.162;18.294;2023-02-15T15:07:22;21.23;;;11.15;;
58681;SDS011;44460;40.162;18.294;2023-02-15T15:09:58;18.52;;;11.15;;
58681;SDS011;44460;40.162;18.294;2023-02-15T15:14:50;19.48;;;11.32;;
58681;SDS011;44460;40.162;18.294;2023-02-15T15:22:43;19.65;;;9.90;;
58681;SDS011;44460;40.162;18.294;2023-02-15T15:35:55;18.10;;;10.55;;
58681;SDS011;44460;40.162;18.294;2023-02-15T15:43:43;20.23;;;11.68;;
58681;SDS011;44460;40.162;18.294;2023-02-15T15:47:01;22.23;;;12.30;;
58681;SDS011;44460;40.162;18.294;2023-02-15T15:49:02;18.98;;;9.93;;
58681;SDS011;44460;40.162;18.294;2023-02-15T15:51:31;24.70;;;12.25;;
58681;SDS011;44460;40.162;18.294;2023-02-15T15:53:57;22.52;;;10.63;;
58681;SDS011;44460;40.162;18.294;2023-02-15T15:56:24;21.65;;;11.23;;
58681;SDS011;44460;40.162;18.294;2023-02-15T15:58:54;22.42;;;10.63;;
58681;SDS011;44460;40.162;18.294;2023-02-15T16:01:26;28.42;;;15.15;;
58681;SDS011;44460;40.162;18.294;2023-02-15T16:03:53;17.10;;;11.23;;
58681;SDS011;44460;40.162;18.294;2023-02-15T16:06:29;25.40;;;13.63;;
58681;SDS011;44460;40.162;18.294;2023-02-15T16:08:54;28.45;;;12.25;;
58681;SDS011;44460;40.162;18.294;2023-02-15T16:11:27;22.50;;;13.68;;
58681;SDS011;44460;40.162;18.294;2023-02-15T16:13:54;25.80;;;13.77;;
58681;SDS011;44460;40.162;18.294;2023-02-15T16:16:29;22.55;;;13.85;;
58681;SDS011;44460;40.162;18.294;2023-02-15T16:18:55;24.30;;;14.10;;
58681;SDS011;44460;40.162;18.294;2023-02-15T16:21:29;23.67;;;13.20;;
58681;SDS011;44460;40.162;18.294;2023-02-15T16:24:06;27.95;;;15.20;;
58681;SDS011;44460;40.162;18.294;2023-02-15T16:29:01;20.80;;;14.25;;
58681;SDS011;44460;40.162;18.294;2023-02-15T16:31:28;28.23;;;17.25;;
58681;SDS011;44460;40.162;18.294;2023-02-15T16:33:54;26.15;;;16.90;;
58681;SDS011;44460;40.162;18.294;2023-02-15T16:41:12;26.65;;;16.67;;
58681;SDS011;44460;40.162;18.294;2023-02-15T16:43:38;38.40;;;17.60;;
58681;SDS011;44460;40.162;18.294;2023-02-15T16:46:12;32.80;;;18.42;;
58681;SDS011;44460;40.162;18.294;2023-02-15T16:48:40;28.90;;;18.42;;
58681;SDS011;44460;40.162;18.294;2023-02-15T16:51:07;33.90;;;18.90;;
58681;SDS011;44460;40.162;18.294;2023-02-15T16:53:32;31.73;;;20.75;;
58681;SDS011;44460;40.162;18.294;2023-02-15T16:55:59;37.90;;;22.98;;
58681;SDS011;44460;40.162;18.294;2023-02-15T16:58:36;37.15;;;21.77;;
58681;SDS011;44460;40.162;18.294;2023-02-15T17:01:02;34.10;;;19.13;;
58681;SDS011;44460;40.162;18.294;2023-02-15T17:03:30;34.10;;;17.75;;
58681;SDS011;44460;40.162;18.294;2023-02-15T17:05:57;26.23;;;16.33;;
58681;SDS011;44460;40.162;18.294;2023-02-15T17:13:26;29.80;;;16.38;;
58681;SDS011;44460;40.162;18.294;2023-02-15T17:18:28;29.30;;;16.70;;
58681;SDS011;44460;40.162;18.294;2023-02-15T17:20:55;36.05;;;21.17;;
58681;SDS011;44460;40.162;18.294;2023-02-15T17:25:54;32.03;;;17.75;;
58681;SDS011;44460;40.162;18.294;2023-02-15T17:28:22;25.05;;;15.27;;
58681;SDS011;44460;40.162;18.294;2023-02-15T17:30:48;23.85;;;15.57;;
58681;SDS011;44460;40.162;18.294;2023-02-15T17:33:20;20.90;;;13.65;;
58681;SDS011;44460;40.162;18.294;2023-02-15T17:36:03;35.25;;;18.50;;
58681;SDS011;44460;40.162;18.294;2023-02-15T17:38:30;30.08;;;15.38;;
58681;SDS011;44460;40.162;18.294;2023-02-15T17:40:56;28.95;;;16.23;;